sensor_id;sensor_type;location;lat;lon;timestamp;noise_LAeq;noise_LA_min;noise_LA_max;noise_LA01;noise_LA95
66747;Laerm;53658;50.742;10.864;2023-04-06T00:02:10;53.04;51.06;54.00;;
66747;Laerm;53658;50.742;10.864;2023-04-06T00:04:36;53.06;52.04;53.93;;
66747;Laerm;53658;50.742;10.864;2023-04-06T00:07:02;52.97;52.00;54.00;;
66747;Laerm;53658;50.742;10.864;2023-04-06T00:09:27;53.02;51.93;53.97;;
66747;Laerm;53658;50.742;10.864;2023-04-06T00:11:53;53.07;50.27;58.25;;
66747;Laerm;53658;50.742;10.864;2023-04-06T00:14:19;52.98;51.65;54.04;;
66747;Laerm;53658;50.742;10.864;2023-04-06T00:16:45;52.91;51.87;53.74;;
66747;Laerm;53658;50.742;10.864;2023-04-06T00:19:11;52.94;50.77;53.78;;
66747;Laerm;53658;50.742;10.864;2023-04-06T00:21:38;52.93;51.97;53.78;;
66747;Laerm;53658;50.742;10.864;2023-04-06T00:24:04;53.02;52.01;53.96;;
66747;Laerm;53658;50.742;10.864;2023-04-06T00:26:30;53.11;50.81;60.93;;
66747;Laerm;53658;50.742;10.864;2023-04-06T00:28:56;53.13;52.22;54.02;;
66747;Laerm;53658;50.742;10.864;2023-04-06T00:31:24;53.10;51.95;54.04;;
66747;Laerm;53658;50.742;10.864;2023-04-06T00:33:50;53.16;52.15;54.16;;
66747;Laerm;53658;50.742;10.864;2023-04-06T00:36:16;53.62;51.12;79.56;;
66747;Laerm;53658;50.742;10.864;2023-04-06T00:38:42;53.19;52.09;54.12;;
66747;Laerm;53658;50.742;10.864;2023-04-06T00:41:07;53.27;51.45;54.12;;
66747;Laerm;53658;50.742;10.864;2023-04-06T00:43:34;53.35;52.29;54.31;;
66747;Laerm;53658;50.742;10.864;2023-04-06T00:46:00;53.39;52.32;54.28;;
66747;Laerm;53658;50.742;10.864;2023-04-06T00:48:26;53.40;52.39;54.52;;
66747;Laerm;53658;50.742;10.864;2023-04-06T00:50:52;53.49;52.12;54.36;;
66747;Laerm;53658;50.742;10.864;2023-04-06T00:53:18;53.50;52.48;54.48;;
66747;Laerm;53658;50.742;10.864;2023-04-06T00:55:44;53.53;52.48;54.45;;
66747;Laerm;53658;50.742;10.864;2023-04-06T00:58:10;53.50;51.53;54.35;;
66747;Laerm;53658;50.742;10.864;2023-04-06T01:00:45;53.55;52.53;54.40;;
66747;Laerm;53658;50.742;10.864;2023-04-06T01:03:16;53.61;52.53;54.53;;
66747;Laerm;53658;50.742;10.864;2023-04-06T01:05:43;53.55;50.68;55.16;;
66747;Laerm;53658;50.742;10.864;2023-04-06T01:08:22;53.57;52.50;54.56;;
66747;Laerm;53658;50.742;10.864;2023-04-06T01:10:52;53.64;51.71;54.55;;
66747;Laerm;53658;50.742;10.864;2023-04-06T01:13:24;53.70;52.73;54.72;;
66747;Laerm;53658;50.742;10.864;2023-04-06T01:15:56;53.74;52.19;54.70;;
66747;Laerm;53658;50.742;10.864;2023-04-06T01:18:54;56.04;51.74;89.32;;
66747;Laerm;53658;50.742;10.864;2023-04-06T01:21:28;53.53;52.45;54.35;;
66747;Laerm;53658;50.742;10.864;2023-04-06T01:24:12;53.57;52.26;54.48;;
66747;Laerm;53658;50.742;10.864;2023-04-06T01:26:55;53.53;52.33;55.94;;
66747;Laerm;53658;50.742;10.864;2023-04-06T01:29:22;53.51;50.79;54.37;;
66747;Laerm;53658;50.742;10.864;2023-04-06T01:31:48;53.53;52.32;54.61;;
66747;Laerm;53658;50.742;10.864;2023-04-06T01:34:15;53.49;52.30;54.36;;
66747;Laerm;53658;50.742;10.864;2023-04-06T01:36:42;53.41;52.48;54.30;;
66747;Laerm;53658;50.742;10.864;2023-04-06T01:39:28;53.30;52.32;54.28;;
66747;Laerm;53658;50.742;10.864;2023-04-06T01:41:55;53.38;52.03;54.18;;
66747;Laerm;53658;50.742;10.864;2023-04-06T01:44:21;53.47;51.77;54.33;;
66747;Laerm;53658;50.742;10.864;2023-04-06T01:46:54;53.46;52.52;54.36;;
66747;Laerm;53658;50.742;10.864;2023-04-06T01:49:20;53.47;51.71;54.38;;
66747;Laerm;53658;50.742;10.864;2023-04-06T01:51:51;53.57;52.34;54.42;;
66747;Laerm;53658;50.742;10.864;2023-04-06T01:54:18;53.61;51.97;54.45;;
66747;Laerm;53658;50.742;10.864;2023-04-06T01:57:10;53.66;52.67;54.64;;
66747;Laerm;53658;50.742;10.864;2023-04-06T01:59:42;53.67;52.56;54.55;;
66747;Laerm;53658;50.742;10.864;2023-04-06T02:02:16;53.71;52.36;54.68;;
66747;Laerm;53658;50.742;10.864;2023-04-06T02:04:51;53.75;52.33;54.63;;
66747;Laerm;53658;50.742;10.864;2023-04-06T02:07:17;53.76;52.34;54.72;;
66747;Laerm;53658;50.742;10.864;2023-04-06T02:09:44;53.77;52.74;54.66;;
66747;Laerm;53658;50.742;10.864;2023-04-06T02:12:17;53.72;52.71;54.68;;
66747;Laerm;53658;50.742;10.864;2023-04-06T02:14:43;53.72;50.91;54.70;;
66747;Laerm;53658;50.742;10.864;2023-04-06T02:17:09;53.79;50.81;54.69;;
66747;Laerm;53658;50.742;10.864;2023-04-06T02:19:35;53.83;52.83;54.83;;
66747;Laerm;53658;50.742;10.864;2023-04-06T02:22:01;53.86;52.79;54.89;;
66747;Laerm;53658;50.742;10.864;2023-04-06T02:24:27;53.84;52.40;54.77;;
66747;Laerm;53658;50.742;10.864;2023-04-06T02:26:53;53.88;52.39;54.83;;
66747;Laerm;53658;50.742;10.864;2023-04-06T02:29:19;53.89;52.45;54.83;;
66747;Laerm;53658;50.742;10.864;2023-04-06T02:31:46;53.87;51.59;54.67;;
66747;Laerm;53658;50.742;10.864;2023-04-06T02:34:12;53.91;52.28;54.91;;
66747;Laerm;53658;50.742;10.864;2023-04-06T02:36:45;53.93;52.68;54.90;;
66747;Laerm;53658;50.742;10.864;2023-04-06T02:39:13;53.98;52.29;54.87;;
66747;Laerm;53658;50.742;10.864;2023-04-06T02:41:40;54.00;52.95;54.79;;
66747;Laerm;53658;50.742;10.864;2023-04-06T02:44:08;53.97;52.66;54.94;;
66747;Laerm;53658;50.742;10.864;2023-04-06T02:46:40;53.94;52.13;54.79;;
66747;Laerm;53658;50.742;10.864;2023-04-06T02:49:06;53.97;52.51;54.85;;
66747;Laerm;53658;50.742;10.864;2023-04-06T02:51:34;54.00;52.15;54.89;;
66747;Laerm;53658;50.742;10.864;2023-04-06T02:54:13;54.03;52.88;54.82;;
66747;Laerm;53658;50.742;10.864;2023-04-06T02:56:39;53.99;53.07;54.87;;
66747;Laerm;53658;50.742;10.864;2023-04-06T02:59:05;53.94;52.88;55.03;;
66747;Laerm;53658;50.742;10.864;2023-04-06T03:01:32;53.79;52.60;54.72;;
66747;Laerm;53658;50.742;10.864;2023-04-06T03:04:02;53.83;52.78;54.83;;
66747;Laerm;53658;50.742;10.864;2023-04-06T03:06:29;53.89;52.47;54.72;;
66747;Laerm;53658;50.742;10.864;2023-04-06T03:09:01;53.87;52.95;54.71;;
66747;Laerm;53658;50.742;10.864;2023-04-06T03:11:27;53.86;52.91;54.92;;
66747;Laerm;53658;50.742;10.864;2023-04-06T03:13:53;53.92;52.76;54.70;;
66747;Laerm;53658;50.742;10.864;2023-04-06T03:16:20;53.92;52.90;54.90;;
66747;Laerm;53658;50.742;10.864;2023-04-06T03:18:46;53.91;52.91;54.85;;
66747;Laerm;53658;50.742;10.864;2023-04-06T03:21:13;53.96;52.86;54.94;;
66747;Laerm;53658;50.742;10.864;2023-04-06T03:23:53;53.93;52.72;54.95;;
66747;Laerm;53658;50.742;10.864;2023-04-06T03:26:18;53.91;52.85;54.66;;
66747;Laerm;53658;50.742;10.864;2023-04-06T03:28:45;53.90;52.02;54.78;;
66747;Laerm;53658;50.742;10.864;2023-04-06T03:31:11;53.88;52.64;54.89;;
66747;Laerm;53658;50.742;10.864;2023-04-06T03:33:53;53.92;52.97;54.82;;
66747;Laerm;53658;50.742;10.864;2023-04-06T03:36:44;53.98;52.44;54.84;;
66747;Laerm;53658;50.742;10.864;2023-04-06T03:39:09;53.97;52.51;54.90;;
66747;Laerm;53658;50.742;10.864;2023-04-06T03:41:39;54.03;52.95;54.98;;
66747;Laerm;53658;50.742;10.864;2023-04-06T03:44:22;54.01;53.00;54.90;;
66747;Laerm;53658;50.742;10.864;2023-04-06T03:46:48;53.99;51.37;54.89;;
66747;Laerm;53658;50.742;10.864;2023-04-06T03:49:15;54.02;53.14;54.94;;
66747;Laerm;53658;50.742;10.864;2023-04-06T03:51:44;54.03;52.97;54.89;;
66747;Laerm;53658;50.742;10.864;2023-04-06T03:54:10;53.84;52.70;54.84;;
66747;Laerm;53658;50.742;10.864;2023-04-06T03:56:36;53.72;52.59;54.56;;
66747;Laerm;53658;50.742;10.864;2023-04-06T03:59:02;53.74;52.60;54.77;;
66747;Laerm;53658;50.742;10.864;2023-04-06T04:01:28;53.80;52.79;54.71;;
66747;Laerm;53658;50.742;10.864;2023-04-06T04:03:54;53.76;52.02;54.65;;
66747;Laerm;53658;50.742;10.864;2023-04-06T04:06:20;53.75;52.70;54.59;;
66747;Laerm;53658;50.742;10.864;2023-04-06T04:08:46;53.74;51.53;54.66;;
66747;Laerm;53658;50.742;10.864;2023-04-06T04:11:12;53.70;52.47;54.67;;
66747;Laerm;53658;50.742;10.864;2023-04-06T04:13:38;53.74;52.83;54.70;;
66747;Laerm;53658;50.742;10.864;2023-04-06T04:16:06;53.74;52.66;54.60;;
66747;Laerm;53658;50.742;10.864;2023-04-06T04:18:32;53.83;51.53;54.76;;
66747;Laerm;53658;50.742;10.864;2023-04-06T04:20:58;53.88;51.21;54.85;;
66747;Laerm;53658;50.742;10.864;2023-04-06T04:23:24;53.84;52.71;54.74;;
66747;Laerm;53658;50.742;10.864;2023-04-06T04:25:50;53.90;52.67;54.82;;
66747;Laerm;53658;50.742;10.864;2023-04-06T04:28:17;53.88;52.68;54.88;;
66747;Laerm;53658;50.742;10.864;2023-04-06T04:30:45;53.94;52.94;54.87;;
66747;Laerm;53658;50.742;10.864;2023-04-06T04:33:13;53.98;52.98;54.92;;
66747;Laerm;53658;50.742;10.864;2023-04-06T04:35:40;53.96;53.02;54.86;;
66747;Laerm;53658;50.742;10.864;2023-04-06T04:38:07;53.96;52.23;54.81;;
66747;Laerm;53658;50.742;10.864;2023-04-06T04:40:36;53.97;52.66;54.91;;
66747;Laerm;53658;50.742;10.864;2023-04-06T04:43:06;53.89;52.84;54.64;;
66747;Laerm;53658;50.742;10.864;2023-04-06T04:45:33;53.90;52.81;54.74;;
66747;Laerm;53658;50.742;10.864;2023-04-06T04:48:08;53.95;52.72;54.85;;
66747;Laerm;53658;50.742;10.864;2023-04-06T04:50:46;53.89;52.80;54.85;;
66747;Laerm;53658;50.742;10.864;2023-04-06T04:53:14;53.93;52.78;54.81;;
66747;Laerm;53658;50.742;10.864;2023-04-06T04:55:42;53.95;52.98;54.85;;
66747;Laerm;53658;50.742;10.864;2023-04-06T04:58:09;53.89;52.91;54.79;;
66747;Laerm;53658;50.742;10.864;2023-04-06T05:00:47;53.79;52.54;54.87;;
66747;Laerm;53658;50.742;10.864;2023-04-06T05:03:21;53.80;52.62;54.74;;
66747;Laerm;53658;50.742;10.864;2023-04-06T05:05:55;53.79;52.90;54.65;;
66747;Laerm;53658;50.742;10.864;2023-04-06T05:08:22;53.72;52.72;54.48;;
66747;Laerm;53658;50.742;10.864;2023-04-06T05:10:49;53.65;52.38;54.69;;
66747;Laerm;53658;50.742;10.864;2023-04-06T05:13:16;53.60;52.39;54.46;;
66747;Laerm;53658;50.742;10.864;2023-04-06T05:15:44;53.52;52.28;54.49;;
66747;Laerm;53658;50.742;10.864;2023-04-06T05:18:19;53.40;52.32;54.31;;
66747;Laerm;53658;50.742;10.864;2023-04-06T05:20:47;53.32;52.27;54.33;;
66747;Laerm;53658;50.742;10.864;2023-04-06T05:23:13;53.36;52.37;54.25;;
66747;Laerm;53658;50.742;10.864;2023-04-06T05:25:40;53.21;52.23;54.21;;
66747;Laerm;53658;50.742;10.864;2023-04-06T05:28:14;53.11;52.11;53.99;;
66747;Laerm;53658;50.742;10.864;2023-04-06T05:30:42;53.06;51.03;54.09;;
66747;Laerm;53658;50.742;10.864;2023-04-06T05:33:10;53.06;52.00;53.92;;
66747;Laerm;53658;50.742;10.864;2023-04-06T05:35:55;52.95;51.80;53.90;;
66747;Laerm;53658;50.742;10.864;2023-04-06T05:38:21;52.93;51.81;53.82;;
66747;Laerm;53658;50.742;10.864;2023-04-06T05:40:48;52.85;51.75;53.72;;
66747;Laerm;53658;50.742;10.864;2023-04-06T05:43:17;52.70;51.49;53.65;;
66747;Laerm;53658;50.742;10.864;2023-04-06T05:45:50;52.50;51.06;53.32;;
66747;Laerm;53658;50.742;10.864;2023-04-06T05:48:15;52.32;51.07;53.21;;
66747;Laerm;53658;50.742;10.864;2023-04-06T05:50:41;52.16;50.92;53.00;;
66747;Laerm;53658;50.742;10.864;2023-04-06T05:53:09;52.05;50.93;52.94;;
66747;Laerm;53658;50.742;10.864;2023-04-06T05:55:40;52.01;50.79;52.98;;
66747;Laerm;53658;50.742;10.864;2023-04-06T05:58:16;51.72;50.55;52.88;;
66747;Laerm;53658;50.742;10.864;2023-04-06T06:00:43;51.59;50.66;52.48;;
66747;Laerm;53658;50.742;10.864;2023-04-06T06:03:12;51.36;50.13;52.33;;
66747;Laerm;53658;50.742;10.864;2023-04-06T06:05:41;51.07;49.91;51.97;;
66747;Laerm;53658;50.742;10.864;2023-04-06T06:08:12;50.91;49.83;51.78;;
66747;Laerm;53658;50.742;10.864;2023-04-06T06:10:39;50.64;49.38;51.88;;
66747;Laerm;53658;50.742;10.864;2023-04-06T06:13:07;50.23;49.11;51.19;;
66747;Laerm;53658;50.742;10.864;2023-04-06T06:15:33;49.86;48.63;51.03;;
66747;Laerm;53658;50.742;10.864;2023-04-06T06:17:59;49.45;47.02;50.51;;
66747;Laerm;53658;50.742;10.864;2023-04-06T06:20:26;48.93;46.78;50.01;;
66747;Laerm;53658;50.742;10.864;2023-04-06T06:22:52;48.48;46.78;49.56;;
66747;Laerm;53658;50.742;10.864;2023-04-06T06:25:21;47.90;46.20;49.10;;
66747;Laerm;53658;50.742;10.864;2023-04-06T06:27:48;47.37;45.72;48.52;;
66747;Laerm;53658;50.742;10.864;2023-04-06T06:30:17;46.66;45.07;47.90;;
66747;Laerm;53658;50.742;10.864;2023-04-06T06:32:44;45.46;43.72;46.93;;
66747;Laerm;53658;50.742;10.864;2023-04-06T06:35:10;44.42;42.76;46.23;;
66747;Laerm;53658;50.742;10.864;2023-04-06T06:37:37;43.18;41.38;44.90;;
66747;Laerm;53658;50.742;10.864;2023-04-06T06:40:04;42.06;40.23;43.34;;
66747;Laerm;53658;50.742;10.864;2023-04-06T06:42:33;40.63;38.18;42.47;;
66747;Laerm;53658;50.742;10.864;2023-04-06T06:45:20;38.83;36.20;41.14;;
66747;Laerm;53658;50.742;10.864;2023-04-06T06:47:46;39.18;36.20;41.14;;
66747;Laerm;53658;50.742;10.864;2023-04-06T06:50:12;39.37;36.91;41.06;;
66747;Laerm;53658;50.742;10.864;2023-04-06T06:52:39;39.42;37.32;41.14;;
66747;Laerm;53658;50.742;10.864;2023-04-06T06:55:05;39.60;37.52;41.46;;
66747;Laerm;53658;50.742;10.864;2023-04-06T06:57:31;39.72;37.32;41.30;;
66747;Laerm;53658;50.742;10.864;2023-04-06T07:00:16;40.09;38.21;41.53;;
66747;Laerm;53658;50.742;10.864;2023-04-06T07:02:45;40.01;38.05;41.68;;
66747;Laerm;53658;50.742;10.864;2023-04-06T07:05:11;40.19;38.37;41.75;;
66747;Laerm;53658;50.742;10.864;2023-04-06T07:07:37;40.42;38.52;42.03;;
66747;Laerm;53658;50.742;10.864;2023-04-06T07:10:03;40.38;37.88;42.03;;
66747;Laerm;53658;50.742;10.864;2023-04-06T07:12:29;40.37;38.21;41.96;;
66747;Laerm;53658;50.742;10.864;2023-04-06T07:14:55;40.45;38.21;42.22;;
66747;Laerm;53658;50.742;10.864;2023-04-06T07:17:21;40.46;38.21;42.09;;
66747;Laerm;53658;50.742;10.864;2023-04-06T07:19:47;40.38;37.88;42.35;;
66747;Laerm;53658;50.742;10.864;2023-04-06T07:22:13;40.17;37.32;42.22;;
66747;Laerm;53658;50.742;10.864;2023-04-06T07:24:39;39.88;36.45;41.82;;
66747;Laerm;53658;50.742;10.864;2023-04-06T07:27:05;39.38;35.04;41.53;;
66747;Laerm;53658;50.742;10.864;2023-04-06T07:29:31;38.89;35.04;41.61;;
66747;Laerm;53658;50.742;10.864;2023-04-06T07:31:57;38.50;32.35;41.30;;
66747;Laerm;53658;50.742;10.864;2023-04-06T07:34:23;38.17;33.90;40.71;;
66747;Laerm;53658;50.742;10.864;2023-04-06T07:36:49;38.00;33.90;40.80;;
66747;Laerm;53658;50.742;10.864;2023-04-06T07:39:15;37.87;33.90;55.78;;
66747;Laerm;53658;50.742;10.864;2023-04-06T07:41:41;37.44;31.68;43.34;;
66747;Laerm;53658;50.742;10.864;2023-04-06T07:44:26;37.57;29.92;60.02;;
66747;Laerm;53658;50.742;10.864;2023-04-06T07:46:52;37.38;28.67;42.53;;
66747;Laerm;53658;50.742;10.864;2023-04-06T07:49:20;37.23;30.89;42.41;;
66747;Laerm;53658;50.742;10.864;2023-04-06T07:51:47;37.18;30.89;41.38;;
66747;Laerm;53658;50.742;10.864;2023-04-06T07:54:13;36.95;30.89;40.33;;
66747;Laerm;53658;50.742;10.864;2023-04-06T07:56:57;36.99;30.89;44.19;;
66747;Laerm;53658;50.742;10.864;2023-04-06T07:59:23;36.99;29.92;41.46;;
66747;Laerm;53658;50.742;10.864;2023-04-06T08:02:07;37.01;29.92;58.28;;
66747;Laerm;53658;50.742;10.864;2023-04-06T08:04:33;36.89;29.92;41.89;;
66747;Laerm;53658;50.742;10.864;2023-04-06T08:06:59;37.16;28.67;42.93;;
66747;Laerm;53658;50.742;10.864;2023-04-06T08:09:25;37.15;28.67;43.77;;
66747;Laerm;53658;50.742;10.864;2023-04-06T08:11:51;36.60;28.67;40.03;;
66747;Laerm;53658;50.742;10.864;2023-04-06T08:14:17;36.68;28.67;42.29;;
66747;Laerm;53658;50.742;10.864;2023-04-06T08:16:43;36.55;26.91;39.81;;
66747;Laerm;53658;50.742;10.864;2023-04-06T08:19:09;36.61;28.67;40.33;;
66747;Laerm;53658;50.742;10.864;2023-04-06T08:21:38;36.68;28.67;41.22;;
66747;Laerm;53658;50.742;10.864;2023-04-06T08:24:05;36.61;29.92;41.75;;
66747;Laerm;53658;50.742;10.864;2023-04-06T08:26:32;36.50;26.91;40.33;;
66747;Laerm;53658;50.742;10.864;2023-04-06T08:28:58;36.40;28.67;45.63;;
66747;Laerm;53658;50.742;10.864;2023-04-06T08:31:24;36.74;29.92;47.38;;
66747;Laerm;53658;50.742;10.864;2023-04-06T08:33:50;36.39;28.67;41.22;;
66747;Laerm;53658;50.742;10.864;2023-04-06T08:36:16;36.55;28.67;43.39;;
66747;Laerm;53658;50.742;10.864;2023-04-06T08:38:44;36.99;29.92;44.15;;
66747;Laerm;53658;50.742;10.864;2023-04-06T08:41:11;36.71;26.91;44.03;;
66747;Laerm;53658;50.742;10.864;2023-04-06T08:43:56;36.36;23.90;42.74;;
66747;Laerm;53658;50.742;10.864;2023-04-06T08:46:23;36.29;28.67;48.37;;
66747;Laerm;53658;50.742;10.864;2023-04-06T08:48:57;38.70;26.91;53.39;;
66747;Laerm;53658;50.742;10.864;2023-04-06T08:51:24;36.25;28.32;42.53;;
66747;Laerm;53658;50.742;10.864;2023-04-06T08:53:54;36.27;23.90;39.70;;
66747;Laerm;53658;50.742;10.864;2023-04-06T08:56:24;36.40;23.90;42.98;;
66747;Laerm;53658;50.742;10.864;2023-04-06T08:58:52;36.42;26.91;42.76;;
66747;Laerm;53658;50.742;10.864;2023-04-06T09:01:22;36.15;26.91;39.34;;
66747;Laerm;53658;50.742;10.864;2023-04-06T09:03:55;37.06;5.00;52.37;;
66747;Laerm;53658;50.742;10.864;2023-04-06T09:06:22;41.30;28.67;55.03;;
66747;Laerm;53658;50.742;10.864;2023-04-06T09:09:06;36.78;26.91;42.53;;
66747;Laerm;53658;50.742;10.864;2023-04-06T09:11:49;36.17;26.91;41.68;;
66747;Laerm;53658;50.742;10.864;2023-04-06T09:14:16;36.15;26.91;40.53;;
66747;Laerm;53658;50.742;10.864;2023-04-06T09:16:44;38.52;28.67;48.42;;
66747;Laerm;53658;50.742;10.864;2023-04-06T09:19:13;36.18;26.91;41.61;;
66747;Laerm;53658;50.742;10.864;2023-04-06T09:21:39;36.17;26.91;42.16;;
66747;Laerm;53658;50.742;10.864;2023-04-06T09:24:24;38.02;23.90;48.77;;
66747;Laerm;53658;50.742;10.864;2023-04-06T09:26:51;37.33;26.91;46.07;;
66747;Laerm;53658;50.742;10.864;2023-04-06T09:29:24;36.85;26.91;44.69;;
66747;Laerm;53658;50.742;10.864;2023-04-06T09:32:02;39.54;26.91;53.18;;
66747;Laerm;53658;50.742;10.864;2023-04-06T09:34:28;36.24;23.55;41.81;;
66747;Laerm;53658;50.742;10.864;2023-04-06T09:36:54;39.20;28.67;58.74;;
66747;Laerm;53658;50.742;10.864;2023-04-06T09:39:23;36.60;26.91;44.31;;
66747;Laerm;53658;50.742;10.864;2023-04-06T09:41:51;36.78;26.91;43.63;;
66747;Laerm;53658;50.742;10.864;2023-04-06T09:44:36;36.42;23.90;43.81;;
66747;Laerm;53658;50.742;10.864;2023-04-06T09:47:06;36.18;23.90;41.96;;
66747;Laerm;53658;50.742;10.864;2023-04-06T09:49:33;36.35;28.67;43.94;;
66747;Laerm;53658;50.742;10.864;2023-04-06T09:52:03;36.01;28.67;40.23;;
66747;Laerm;53658;50.742;10.864;2023-04-06T09:54:32;37.06;26.91;46.89;;
66747;Laerm;53658;50.742;10.864;2023-04-06T09:57:11;35.99;26.91;40.13;;
66747;Laerm;53658;50.742;10.864;2023-04-06T09:59:44;37.25;26.91;48.05;;
66747;Laerm;53658;50.742;10.864;2023-04-06T10:05:55;38.24;23.90;52.55;;
66747;Laerm;53658;50.742;10.864;2023-04-06T10:08:24;39.54;26.91;58.02;;
66747;Laerm;53658;50.742;10.864;2023-04-06T10:10:54;36.31;26.56;43.04;;
66747;Laerm;53658;50.742;10.864;2023-04-06T10:13:20;36.10;23.90;41.89;;
66747;Laerm;53658;50.742;10.864;2023-04-06T10:15:46;36.28;26.91;42.29;;
66747;Laerm;53658;50.742;10.864;2023-04-06T10:18:13;36.65;26.91;43.33;;
66747;Laerm;53658;50.742;10.864;2023-04-06T10:20:51;36.00;26.91;39.58;;
66747;Laerm;53658;50.742;10.864;2023-04-06T10:23:45;37.26;28.67;47.91;;
66747;Laerm;53658;50.742;10.864;2023-04-06T10:26:15;36.02;23.90;40.43;;
66747;Laerm;53658;50.742;10.864;2023-04-06T10:28:45;35.99;26.91;43.72;;
66747;Laerm;53658;50.742;10.864;2023-04-06T10:31:11;36.05;23.90;40.71;;
66747;Laerm;53658;50.742;10.864;2023-04-06T10:33:57;35.95;23.90;40.62;;
66747;Laerm;53658;50.742;10.864;2023-04-06T10:36:27;36.49;23.90;42.88;;
66747;Laerm;53658;50.742;10.864;2023-04-06T10:38:56;37.41;26.56;46.05;;
66747;Laerm;53658;50.742;10.864;2023-04-06T10:41:23;36.62;23.90;46.45;;
66747;Laerm;53658;50.742;10.864;2023-04-06T10:43:56;36.32;28.67;43.33;;
66747;Laerm;53658;50.742;10.864;2023-04-06T10:46:27;37.47;5.00;51.97;;
66747;Laerm;53658;50.742;10.864;2023-04-06T10:48:54;37.95;26.91;47.36;;
66747;Laerm;53658;50.742;10.864;2023-04-06T10:51:27;36.21;23.90;43.04;;
66747;Laerm;53658;50.742;10.864;2023-04-06T10:53:54;36.13;23.90;43.44;;
66747;Laerm;53658;50.742;10.864;2023-04-06T10:56:23;36.52;28.67;43.19;;
66747;Laerm;53658;50.742;10.864;2023-04-06T10:58:52;36.74;28.67;43.63;;
66747;Laerm;53658;50.742;10.864;2023-04-06T11:01:21;36.96;28.67;45.72;;
66747;Laerm;53658;50.742;10.864;2023-04-06T11:03:50;38.86;23.90;54.72;;
66747;Laerm;53658;50.742;10.864;2023-04-06T11:06:25;37.89;28.67;50.93;;
66747;Laerm;53658;50.742;10.864;2023-04-06T11:08:53;38.27;5.00;47.57;;
66747;Laerm;53658;50.742;10.864;2023-04-06T11:11:21;36.44;23.90;44.31;;
66747;Laerm;53658;50.742;10.864;2023-04-06T11:18:53;35.86;26.91;39.46;;
66747;Laerm;53658;50.742;10.864;2023-04-06T11:21:31;36.21;23.90;43.04;;
66747;Laerm;53658;50.742;10.864;2023-04-06T11:26:54;36.00;23.90;41.68;;
66747;Laerm;53658;50.742;10.864;2023-04-06T11:29:21;35.99;5.00;40.80;;
66747;Laerm;53658;50.742;10.864;2023-04-06T11:31:52;36.06;5.00;43.24;;
66747;Laerm;53658;50.742;10.864;2023-04-06T11:34:20;36.42;23.90;44.62;;
66747;Laerm;53658;50.742;10.864;2023-04-06T11:36:48;36.41;26.91;45.48;;
66747;Laerm;53658;50.742;10.864;2023-04-06T11:39:20;35.94;23.90;40.23;;
66747;Laerm;53658;50.742;10.864;2023-04-06T11:41:50;37.13;26.91;45.69;;
66747;Laerm;53658;50.742;10.864;2023-04-06T11:44:40;36.23;23.90;41.61;;
66747;Laerm;53658;50.742;10.864;2023-04-06T11:47:09;36.45;26.91;43.90;;
66747;Laerm;53658;50.742;10.864;2023-04-06T11:49:40;36.12;23.90;42.82;;
66747;Laerm;53658;50.742;10.864;2023-04-06T11:52:23;36.07;23.90;40.71;;
66747;Laerm;53658;50.742;10.864;2023-04-06T11:54:52;37.47;26.91;48.85;;
66747;Laerm;53658;50.742;10.864;2023-04-06T11:57:20;36.35;23.90;42.65;;
66747;Laerm;53658;50.742;10.864;2023-04-06T11:59:46;36.29;5.00;42.09;;
66747;Laerm;53658;50.742;10.864;2023-04-06T12:02:12;35.99;23.90;40.23;;
66747;Laerm;53658;50.742;10.864;2023-04-06T12:04:38;36.25;26.91;43.04;;
66747;Laerm;53658;50.742;10.864;2023-04-06T12:07:05;38.52;28.67;53.07;;
66747;Laerm;53658;50.742;10.864;2023-04-06T12:09:31;36.22;23.90;43.29;;
66747;Laerm;53658;50.742;10.864;2023-04-06T12:11:57;37.78;23.90;53.75;;
66747;Laerm;53658;50.742;10.864;2023-04-06T12:14:23;36.26;26.91;42.59;;
66747;Laerm;53658;50.742;10.864;2023-04-06T12:16:49;37.44;23.90;47.52;;
66747;Laerm;53658;50.742;10.864;2023-04-06T12:19:33;37.33;26.91;48.46;;
66747;Laerm;53658;50.742;10.864;2023-04-06T12:21:59;36.01;23.90;40.13;;
66747;Laerm;53658;50.742;10.864;2023-04-06T12:24:25;36.11;23.90;42.59;;
66747;Laerm;53658;50.742;10.864;2023-04-06T12:26:51;35.98;26.91;39.46;;
66747;Laerm;53658;50.742;10.864;2023-04-06T12:29:35;35.94;23.55;39.08;;
66747;Laerm;53658;50.742;10.864;2023-04-06T12:32:01;35.94;23.90;39.46;;
66747;Laerm;53658;50.742;10.864;2023-04-06T12:34:27;35.95;23.90;39.58;;
66747;Laerm;53658;50.742;10.864;2023-04-06T12:36:53;36.04;26.91;40.03;;
66747;Laerm;53658;50.742;10.864;2023-04-06T12:39:19;36.09;26.91;41.22;;
66747;Laerm;53658;50.742;10.864;2023-04-06T12:41:46;36.01;26.91;39.34;;
66747;Laerm;53658;50.742;10.864;2023-04-06T12:44:11;37.08;5.00;51.70;;
66747;Laerm;53658;50.742;10.864;2023-04-06T12:46:38;36.02;5.00;41.30;;
66747;Laerm;53658;50.742;10.864;2023-04-06T12:49:07;35.93;26.91;39.46;;
66747;Laerm;53658;50.742;10.864;2023-04-06T12:51:33;36.41;23.90;44.23;;
66747;Laerm;53658;50.742;10.864;2023-04-06T12:53:59;36.87;26.91;44.19;;
66747;Laerm;53658;50.742;10.864;2023-04-06T12:56:25;36.62;23.90;44.27;;
66747;Laerm;53658;50.742;10.864;2023-04-06T12:58:51;37.02;26.91;44.80;;
66747;Laerm;53658;50.742;10.864;2023-04-06T13:01:18;36.54;23.90;44.47;;
66747;Laerm;53658;50.742;10.864;2023-04-06T13:03:43;37.15;26.91;46.15;;
66747;Laerm;53658;50.742;10.864;2023-04-06T13:06:10;36.20;23.55;42.53;;
66747;Laerm;53658;50.742;10.864;2023-04-06T13:08:38;36.58;23.90;48.40;;
66747;Laerm;53658;50.742;10.864;2023-04-06T13:11:05;36.03;26.91;41.61;;
66747;Laerm;53658;50.742;10.864;2023-04-06T13:13:31;36.42;23.90;42.71;;
66747;Laerm;53658;50.742;10.864;2023-04-06T13:16:05;35.88;26.91;39.34;;
66747;Laerm;53658;50.742;10.864;2023-04-06T13:18:32;36.97;23.90;47.83;;
66747;Laerm;53658;50.742;10.864;2023-04-06T13:20:58;40.16;26.91;54.67;;
66747;Laerm;53658;50.742;10.864;2023-04-06T13:23:25;36.01;26.91;40.23;;
66747;Laerm;53658;50.742;10.864;2023-04-06T13:26:17;36.46;26.91;43.54;;
66747;Laerm;53658;50.742;10.864;2023-04-06T13:28:43;36.04;23.90;41.30;;
66747;Laerm;53658;50.742;10.864;2023-04-06T13:31:09;36.67;26.91;44.51;;
66747;Laerm;53658;50.742;10.864;2023-04-06T13:33:35;38.58;26.91;48.19;;
66747;Laerm;53658;50.742;10.864;2023-04-06T13:36:02;39.46;23.90;54.53;;
66747;Laerm;53658;50.742;10.864;2023-04-06T13:38:29;36.93;26.91;43.86;;
66747;Laerm;53658;50.742;10.864;2023-04-06T13:40:55;36.13;26.91;41.96;;
66747;Laerm;53658;50.742;10.864;2023-04-06T13:43:21;35.96;26.91;39.46;;
66747;Laerm;53658;50.742;10.864;2023-04-06T13:45:52;35.91;26.91;40.23;;
66747;Laerm;53658;50.742;10.864;2023-04-06T13:48:20;35.93;5.00;44.58;;
66747;Laerm;53658;50.742;10.864;2023-04-06T13:50:47;35.91;23.90;39.58;;
66747;Laerm;53658;50.742;10.864;2023-04-06T13:53:13;36.07;26.91;40.98;;
66747;Laerm;53658;50.742;10.864;2023-04-06T13:55:39;36.56;26.91;43.24;;